sensor_id;sensor_type;location;lat;lon;timestamp;P1;durP1;ratioP1;P2;durP2;ratioP2
28848;SDS011;15981;43.292;-2.888;2022-09-29T00:01:31;4.55;;;1.20;;
28848;SDS011;15981;43.292;-2.888;2022-09-29T00:03:57;1.80;;;1.33;;
28848;SDS011;15981;43.292;-2.888;2022-09-29T00:06:23;2.10;;;1.25;;
28848;SDS011;15981;43.292;-2.888;2022-09-29T00:08:49;2.28;;;1.40;;
28848;SDS011;15981;43.292;-2.888;2022-09-29T00:11:16;2.22;;;1.20;;
28848;SDS011;15981;43.292;-2.888;2022-09-29T00:13:42;1.85;;;1.30;;
28848;SDS011;15981;43.292;-2.888;2022-09-29T00:16:08;2.45;;;1.33;;
28848;SDS011;15981;43.292;-2.888;2022-09-29T00:18:34;2.42;;;1.50;;
28848;SDS011;15981;43.292;-2.888;2022-09-29T00:21:01;2.70;;;1.90;;
28848;SDS011;15981;43.292;-2.888;2022-09-29T00:23:27;2.80;;;1.48;;
28848;SDS011;15981;43.292;-2.888;2022-09-29T00:26:04;3.20;;;1.80;;
28848;SDS011;15981;43.292;-2.888;2022-09-29T00:28:30;2.50;;;1.55;;
28848;SDS011;15981;43.292;-2.888;2022-09-29T00:30:57;1.73;;;1.20;;
28848;SDS011;15981;43.292;-2.888;2022-09-29T00:33:23;2.38;;;1.20;;
28848;SDS011;15981;43.292;-2.888;2022-09-29T00:35:55;1.88;;;1.30;;
28848;SDS011;15981;43.292;-2.888;2022-09-29T00:38:23;1.83;;;1.42;;
28848;SDS011;15981;43.292;-2.888;2022-09-29T00:40:49;3.47;;;1.30;;
28848;SDS011;15981;43.292;-2.888;2022-09-29T00:43:18;3.47;;;1.27;;
28848;SDS011;15981;43.292;-2.888;2022-09-29T00:45:44;2.10;;;1.05;;
28848;SDS011;15981;43.292;-2.888;2022-09-29T00:48:12;1.70;;;1.00;;
28848;SDS011;15981;43.292;-2.888;2022-09-29T00:50:45;1.52;;;1.00;;
28848;SDS011;15981;43.292;-2.888;2022-09-29T00:53:13;2.05;;;1.00;;
28848;SDS011;15981;43.292;-2.888;2022-09-29T00:55:43;2.58;;;1.02;;
28848;SDS011;15981;43.292;-2.888;2022-09-29T01:00:42;3.78;;;1.33;;
28848;SDS011;15981;43.292;-2.888;2022-09-29T01:03:12;2.80;;;1.05;;
28848;SDS011;15981;43.292;-2.888;2022-09-29T01:05:39;4.30;;;1.20;;
28848;SDS011;15981;43.292;-2.888;2022-09-29T01:08:15;2.33;;;1.02;;
28848;SDS011;15981;43.292;-2.888;2022-09-29T01:10:43;2.83;;;1.30;;
28848;SDS011;15981;43.292;-2.888;2022-09-29T01:13:09;3.15;;;1.50;;
28848;SDS011;15981;43.292;-2.888;2022-09-29T01:15:35;2.03;;;1.00;;
28848;SDS011;15981;43.292;-2.888;2022-09-29T01:18:01;3.17;;;1.30;;
28848;SDS011;15981;43.292;-2.888;2022-09-29T01:20:28;1.52;;;1.08;;
28848;SDS011;15981;43.292;-2.888;2022-09-29T01:28:33;2.92;;;1.20;;
28848;SDS011;15981;43.292;-2.888;2022-09-29T01:33:43;2.10;;;1.20;;
28848;SDS011;15981;43.292;-2.888;2022-09-29T01:39:12;2.42;;;1.10;;
28848;SDS011;15981;43.292;-2.888;2022-09-29T01:41:44;1.50;;;1.02;;
28848;SDS011;15981;43.292;-2.888;2022-09-29T01:44:17;2.67;;;1.15;;
28848;SDS011;15981;43.292;-2.888;2022-09-29T01:46:52;1.63;;;1.13;;
28848;SDS011;15981;43.292;-2.888;2022-09-29T01:49:20;2.33;;;1.20;;
28848;SDS011;15981;43.292;-2.888;2022-09-29T01:54:14;1.67;;;0.90;;
28848;SDS011;15981;43.292;-2.888;2022-09-29T01:56:42;1.00;;;0.90;;
28848;SDS011;15981;43.292;-2.888;2022-09-29T02:01:36;1.88;;;1.25;;
28848;SDS011;15981;43.292;-2.888;2022-09-29T02:04:04;2.25;;;1.10;;
28848;SDS011;15981;43.292;-2.888;2022-09-29T02:06:34;1.90;;;1.00;;
28848;SDS011;15981;43.292;-2.888;2022-09-29T02:09:02;2.10;;;1.17;;
28848;SDS011;15981;43.292;-2.888;2022-09-29T02:11:29;2.50;;;1.42;;
28848;SDS011;15981;43.292;-2.888;2022-09-29T02:16:23;1.70;;;0.98;;
28848;SDS011;15981;43.292;-2.888;2022-09-29T02:18:53;1.80;;;1.23;;
28848;SDS011;15981;43.292;-2.888;2022-09-29T02:21:23;2.03;;;1.27;;
28848;SDS011;15981;43.292;-2.888;2022-09-29T02:23:49;1.58;;;1.13;;
28848;SDS011;15981;43.292;-2.888;2022-09-29T02:26:16;1.50;;;1.08;;
28848;SDS011;15981;43.292;-2.888;2022-09-29T02:28:42;2.17;;;1.40;;
28848;SDS011;15981;43.292;-2.888;2022-09-29T02:31:08;1.33;;;0.90;;
28848;SDS011;15981;43.292;-2.888;2022-09-29T02:33:34;2.38;;;1.20;;
28848;SDS011;15981;43.292;-2.888;2022-09-29T02:38:30;1.65;;;0.95;;
28848;SDS011;15981;43.292;-2.888;2022-09-29T02:44:02;2.60;;;1.23;;
28848;SDS011;15981;43.292;-2.888;2022-09-29T02:46:41;2.35;;;1.23;;
28848;SDS011;15981;43.292;-2.888;2022-09-29T02:51:39;1.90;;;1.00;;
28848;SDS011;15981;43.292;-2.888;2022-09-29T02:54:10;1.83;;;1.00;;
28848;SDS011;15981;43.292;-2.888;2022-09-29T02:56:40;2.83;;;1.08;;
28848;SDS011;15981;43.292;-2.888;2022-09-29T02:59:09;1.83;;;0.90;;
28848;SDS011;15981;43.292;-2.888;2022-09-29T03:01:39;2.30;;;1.00;;
28848;SDS011;15981;43.292;-2.888;2022-09-29T03:04:10;1.85;;;1.05;;
28848;SDS011;15981;43.292;-2.888;2022-09-29T03:06:36;2.25;;;1.10;;
28848;SDS011;15981;43.292;-2.888;2022-09-29T03:09:02;2.58;;;1.20;;
28848;SDS011;15981;43.292;-2.888;2022-09-29T03:11:28;1.27;;;1.00;;
28848;SDS011;15981;43.292;-2.888;2022-09-29T03:13:53;2.35;;;1.10;;
28848;SDS011;15981;43.292;-2.888;2022-09-29T03:16:19;1.40;;;0.95;;
28848;SDS011;15981;43.292;-2.888;2022-09-29T03:18:45;1.70;;;0.90;;
28848;SDS011;15981;43.292;-2.888;2022-09-29T03:21:11;1.63;;;1.00;;
28848;SDS011;15981;43.292;-2.888;2022-09-29T03:23:36;1.15;;;1.00;;
28848;SDS011;15981;43.292;-2.888;2022-09-29T03:26:02;1.23;;;1.00;;
28848;SDS011;15981;43.292;-2.888;2022-09-29T03:28:28;1.67;;;0.93;;
28848;SDS011;15981;43.292;-2.888;2022-09-29T03:30:53;0.93;;;0.75;;
28848;SDS011;15981;43.292;-2.888;2022-09-29T03:33:20;1.00;;;0.65;;
28848;SDS011;15981;43.292;-2.888;2022-09-29T03:35:45;1.15;;;0.85;;
28848;SDS011;15981;43.292;-2.888;2022-09-29T03:38:11;0.98;;;0.80;;
28848;SDS011;15981;43.292;-2.888;2022-09-29T03:40:37;2.63;;;1.00;;
28848;SDS011;15981;43.292;-2.888;2022-09-29T03:43:03;1.40;;;0.77;;
28848;SDS011;15981;43.292;-2.888;2022-09-29T03:45:28;1.75;;;1.00;;
28848;SDS011;15981;43.292;-2.888;2022-09-29T03:47:54;0.88;;;0.80;;
28848;SDS011;15981;43.292;-2.888;2022-09-29T03:50:20;1.10;;;1.00;;
28848;SDS011;15981;43.292;-2.888;2022-09-29T03:52:45;1.70;;;0.73;;
28848;SDS011;15981;43.292;-2.888;2022-09-29T03:55:11;1.40;;;1.05;;
28848;SDS011;15981;43.292;-2.888;2022-09-29T03:57:37;1.85;;;1.08;;
28848;SDS011;15981;43.292;-2.888;2022-09-29T04:00:03;1.88;;;1.23;;
28848;SDS011;15981;43.292;-2.888;2022-09-29T04:02:28;1.92;;;1.13;;
28848;SDS011;15981;43.292;-2.888;2022-09-29T04:04:54;1.23;;;1.00;;
28848;SDS011;15981;43.292;-2.888;2022-09-29T04:07:20;1.05;;;0.75;;
28848;SDS011;15981;43.292;-2.888;2022-09-29T04:09:45;2.13;;;1.10;;
28848;SDS011;15981;43.292;-2.888;2022-09-29T04:12:11;1.98;;;0.90;;
28848;SDS011;15981;43.292;-2.888;2022-09-29T04:14:37;1.65;;;1.00;;
28848;SDS011;15981;43.292;-2.888;2022-09-29T04:17:03;0.90;;;0.73;;
28848;SDS011;15981;43.292;-2.888;2022-09-29T04:19:28;1.85;;;1.00;;
28848;SDS011;15981;43.292;-2.888;2022-09-29T04:21:54;1.08;;;0.90;;
28848;SDS011;15981;43.292;-2.888;2022-09-29T04:24:20;1.00;;;0.90;;
28848;SDS011;15981;43.292;-2.888;2022-09-29T04:26:45;1.83;;;0.75;;
28848;SDS011;15981;43.292;-2.888;2022-09-29T04:29:11;1.40;;;0.90;;
28848;SDS011;15981;43.292;-2.888;2022-09-29T04:31:37;2.15;;;0.95;;
28848;SDS011;15981;43.292;-2.888;2022-09-29T04:34:02;1.05;;;0.90;;
28848;SDS011;15981;43.292;-2.888;2022-09-29T04:36:28;1.85;;;1.02;;
28848;SDS011;15981;43.292;-2.888;2022-09-29T04:38:54;0.95;;;0.60;;
28848;SDS011;15981;43.292;-2.888;2022-09-29T04:41:20;1.85;;;1.05;;
28848;SDS011;15981;43.292;-2.888;2022-09-29T04:43:46;1.40;;;0.70;;
28848;SDS011;15981;43.292;-2.888;2022-09-29T04:46:11;1.90;;;0.80;;
28848;SDS011;15981;43.292;-2.888;2022-09-29T04:48:38;1.92;;;0.70;;
28848;SDS011;15981;43.292;-2.888;2022-09-29T04:51:04;1.45;;;0.90;;
28848;SDS011;15981;43.292;-2.888;2022-09-29T04:53:30;0.82;;;0.63;;
28848;SDS011;15981;43.292;-2.888;2022-09-29T04:55:55;1.13;;;0.82;;
28848;SDS011;15981;43.292;-2.888;2022-09-29T04:58:21;0.88;;;0.70;;
28848;SDS011;15981;43.292;-2.888;2022-09-29T05:00:47;1.50;;;0.82;;
28848;SDS011;15981;43.292;-2.888;2022-09-29T05:03:12;1.88;;;0.93;;
28848;SDS011;15981;43.292;-2.888;2022-09-29T05:05:38;0.85;;;0.80;;
28848;SDS011;15981;43.292;-2.888;2022-09-29T05:08:04;1.65;;;0.98;;
28848;SDS011;15981;43.292;-2.888;2022-09-29T05:10:30;2.38;;;0.90;;
28848;SDS011;15981;43.292;-2.888;2022-09-29T05:12:56;0.75;;;0.73;;
28848;SDS011;15981;43.292;-2.888;2022-09-29T05:15:21;1.38;;;0.73;;
28848;SDS011;15981;43.292;-2.888;2022-09-29T05:17:47;1.90;;;0.90;;
28848;SDS011;15981;43.292;-2.888;2022-09-29T05:20:13;0.85;;;0.70;;
28848;SDS011;15981;43.292;-2.888;2022-09-29T05:22:40;1.45;;;0.73;;
28848;SDS011;15981;43.292;-2.888;2022-09-29T05:25:06;2.03;;;0.82;;
28848;SDS011;15981;43.292;-2.888;2022-09-29T05:27:34;2.17;;;0.80;;
28848;SDS011;15981;43.292;-2.888;2022-09-29T05:30:00;1.25;;;0.77;;
28848;SDS011;15981;43.292;-2.888;2022-09-29T05:32:26;0.93;;;0.70;;
28848;SDS011;15981;43.292;-2.888;2022-09-29T05:34:51;1.88;;;1.00;;
28848;SDS011;15981;43.292;-2.888;2022-09-29T05:37:17;1.67;;;0.90;;
28848;SDS011;15981;43.292;-2.888;2022-09-29T05:39:43;1.90;;;0.80;;
28848;SDS011;15981;43.292;-2.888;2022-09-29T05:42:09;2.22;;;0.95;;
28848;SDS011;15981;43.292;-2.888;2022-09-29T05:44:35;1.17;;;0.80;;
28848;SDS011;15981;43.292;-2.888;2022-09-29T05:47:01;1.77;;;0.98;;
28848;SDS011;15981;43.292;-2.888;2022-09-29T05:49:27;1.42;;;0.88;;
28848;SDS011;15981;43.292;-2.888;2022-09-29T05:51:52;1.33;;;0.70;;
28848;SDS011;15981;43.292;-2.888;2022-09-29T05:54:18;2.88;;;0.90;;
28848;SDS011;15981;43.292;-2.888;2022-09-29T05:56:44;1.83;;;1.10;;
28848;SDS011;15981;43.292;-2.888;2022-09-29T05:59:10;2.03;;;1.00;;
28848;SDS011;15981;43.292;-2.888;2022-09-29T06:01:35;3.28;;;1.30;;
28848;SDS011;15981;43.292;-2.888;2022-09-29T06:04:01;2.15;;;1.10;;
28848;SDS011;15981;43.292;-2.888;2022-09-29T06:06:28;4.57;;;1.70;;
28848;SDS011;15981;43.292;-2.888;2022-09-29T06:08:54;2.50;;;1.30;;
28848;SDS011;15981;43.292;-2.888;2022-09-29T06:11:21;3.00;;;1.70;;
28848;SDS011;15981;43.292;-2.888;2022-09-29T06:13:48;2.78;;;1.15;;
28848;SDS011;15981;43.292;-2.888;2022-09-29T06:16:14;4.47;;;1.23;;
28848;SDS011;15981;43.292;-2.888;2022-09-29T06:18:40;3.10;;;1.35;;
28848;SDS011;15981;43.292;-2.888;2022-09-29T06:21:08;3.17;;;1.00;;
28848;SDS011;15981;43.292;-2.888;2022-09-29T06:23:34;1.88;;;0.95;;
28848;SDS011;15981;43.292;-2.888;2022-09-29T06:26:01;1.17;;;1.00;;
28848;SDS011;15981;43.292;-2.888;2022-09-29T06:28:27;4.30;;;1.23;;
28848;SDS011;15981;43.292;-2.888;2022-09-29T06:31:03;2.90;;;0.93;;
28848;SDS011;15981;43.292;-2.888;2022-09-29T06:33:29;2.10;;;1.10;;
28848;SDS011;15981;43.292;-2.888;2022-09-29T06:35:56;2.53;;;1.27;;
28848;SDS011;15981;43.292;-2.888;2022-09-29T06:38:40;2.42;;;1.35;;
28848;SDS011;15981;43.292;-2.888;2022-09-29T06:41:06;3.38;;;1.20;;
28848;SDS011;15981;43.292;-2.888;2022-09-29T06:43:32;2.95;;;1.20;;
28848;SDS011;15981;43.292;-2.888;2022-09-29T06:45:58;11.07;;;4.22;;
28848;SDS011;15981;43.292;-2.888;2022-09-29T06:48:24;19.38;;;7.13;;
28848;SDS011;15981;43.292;-2.888;2022-09-29T06:50:49;20.35;;;6.57;;
28848;SDS011;15981;43.292;-2.888;2022-09-29T06:53:15;12.15;;;5.18;;
28848;SDS011;15981;43.292;-2.888;2022-09-29T06:55:41;10.30;;;4.03;;
28848;SDS011;15981;43.292;-2.888;2022-09-29T06:58:07;10.18;;;3.88;;
28848;SDS011;15981;43.292;-2.888;2022-09-29T07:00:34;9.70;;;3.35;;
28848;SDS011;15981;43.292;-2.888;2022-09-29T07:03:00;8.48;;;3.47;;
28848;SDS011;15981;43.292;-2.888;2022-09-29T07:05:26;12.07;;;3.25;;
28848;SDS011;15981;43.292;-2.888;2022-09-29T07:07:52;10.07;;;3.30;;
28848;SDS011;15981;43.292;-2.888;2022-09-29T07:10:20;7.93;;;3.08;;
28848;SDS011;15981;43.292;-2.888;2022-09-29T07:12:46;8.02;;;3.10;;
28848;SDS011;15981;43.292;-2.888;2022-09-29T07:15:12;8.15;;;3.05;;
28848;SDS011;15981;43.292;-2.888;2022-09-29T07:17:38;6.38;;;2.53;;
28848;SDS011;15981;43.292;-2.888;2022-09-29T07:20:04;7.55;;;2.75;;
28848;SDS011;15981;43.292;-2.888;2022-09-29T07:22:29;8.13;;;2.90;;
28848;SDS011;15981;43.292;-2.888;2022-09-29T07:24:55;6.35;;;2.78;;
28848;SDS011;15981;43.292;-2.888;2022-09-29T07:27:21;7.57;;;2.97;;
28848;SDS011;15981;43.292;-2.888;2022-09-29T07:29:51;7.70;;;3.45;;
28848;SDS011;15981;43.292;-2.888;2022-09-29T07:32:17;7.20;;;2.40;;
28848;SDS011;15981;43.292;-2.888;2022-09-29T07:34:43;5.90;;;2.35;;
28848;SDS011;15981;43.292;-2.888;2022-09-29T07:37:12;5.43;;;2.53;;
28848;SDS011;15981;43.292;-2.888;2022-09-29T07:39:37;4.45;;;2.25;;
28848;SDS011;15981;43.292;-2.888;2022-09-29T07:42:04;4.28;;;2.20;;
28848;SDS011;15981;43.292;-2.888;2022-09-29T07:44:30;3.70;;;1.85;;
28848;SDS011;15981;43.292;-2.888;2022-09-29T07:46:57;4.60;;;1.55;;
28848;SDS011;15981;43.292;-2.888;2022-09-29T07:49:22;3.85;;;1.70;;
28848;SDS011;15981;43.292;-2.888;2022-09-29T07:51:48;3.03;;;1.50;;
28848;SDS011;15981;43.292;-2.888;2022-09-29T07:54:14;3.97;;;1.60;;
28848;SDS011;15981;43.292;-2.888;2022-09-29T07:56:40;2.67;;;1.50;;
28848;SDS011;15981;43.292;-2.888;2022-09-29T07:59:05;2.35;;;1.33;;
28848;SDS011;15981;43.292;-2.888;2022-09-29T08:01:31;2.40;;;1.10;;
28848;SDS011;15981;43.292;-2.888;2022-09-29T08:03:57;1.27;;;0.90;;
28848;SDS011;15981;43.292;-2.888;2022-09-29T08:06:24;2.35;;;0.95;;
28848;SDS011;15981;43.292;-2.888;2022-09-29T08:08:50;1.92;;;0.90;;
28848;SDS011;15981;43.292;-2.888;2022-09-29T08:11:17;2.72;;;1.17;;
28848;SDS011;15981;43.292;-2.888;2022-09-29T08:13:45;2.25;;;1.02;;
28848;SDS011;15981;43.292;-2.888;2022-09-29T08:16:11;3.15;;;0.75;;
28848;SDS011;15981;43.292;-2.888;2022-09-29T08:18:37;2.72;;;1.13;;
28848;SDS011;15981;43.292;-2.888;2022-09-29T08:21:03;2.15;;;0.88;;
28848;SDS011;15981;43.292;-2.888;2022-09-29T08:23:30;2.10;;;0.70;;
28848;SDS011;15981;43.292;-2.888;2022-09-29T08:25:59;1.50;;;0.60;;
28848;SDS011;15981;43.292;-2.888;2022-09-29T08:28:25;1.25;;;0.60;;
28848;SDS011;15981;43.292;-2.888;2022-09-29T08:30:51;1.02;;;0.60;;
28848;SDS011;15981;43.292;-2.888;2022-09-29T08:33:17;1.88;;;0.60;;
28848;SDS011;15981;43.292;-2.888;2022-09-29T08:35:42;1.17;;;0.55;;
28848;SDS011;15981;43.292;-2.888;2022-09-29T08:38:08;1.08;;;0.70;;
28848;SDS011;15981;43.292;-2.888;2022-09-29T08:40:34;2.08;;;0.50;;
28848;SDS011;15981;43.292;-2.888;2022-09-29T08:43:04;1.38;;;0.47;;
28848;SDS011;15981;43.292;-2.888;2022-09-29T08:45:34;0.60;;;0.60;;
28848;SDS011;15981;43.292;-2.888;2022-09-29T08:48:03;1.25;;;0.43;;
28848;SDS011;15981;43.292;-2.888;2022-09-29T08:50:32;0.95;;;0.40;;
28848;SDS011;15981;43.292;-2.888;2022-09-29T08:53:02;1.80;;;0.68;;
28848;SDS011;15981;43.292;-2.888;2022-09-29T08:55:33;1.42;;;0.50;;
28848;SDS011;15981;43.292;-2.888;2022-09-29T08:58:00;0.38;;;0.38;;
28848;SDS011;15981;43.292;-2.888;2022-09-29T09:00:33;0.55;;;0.50;;
28848;SDS011;15981;43.292;-2.888;2022-09-29T09:03:21;1.88;;;0.43;;
28848;SDS011;15981;43.292;-2.888;2022-09-29T09:16:28;0.90;;;0.65;;
28848;SDS011;15981;43.292;-2.888;2022-09-29T09:21:57;0.60;;;0.30;;
28848;SDS011;15981;43.292;-2.888;2022-09-29T09:24:27;0.50;;;0.45;;
28848;SDS011;15981;43.292;-2.888;2022-09-29T09:26:58;1.10;;;0.40;;
28848;SDS011;15981;43.292;-2.888;2022-09-29T09:29:27;1.40;;;0.50;;
28848;SDS011;15981;43.292;-2.888;2022-09-29T09:31:55;0.88;;;0.50;;
28848;SDS011;15981;43.292;-2.888;2022-09-29T09:34:26;0.60;;;0.40;;
28848;SDS011;15981;43.292;-2.888;2022-09-29T09:37:10;1.30;;;0.50;;
28848;SDS011;15981;43.292;-2.888;2022-09-29T09:39:53;0.90;;;0.60;;
28848;SDS011;15981;43.292;-2.888;2022-09-29T09:42:22;0.40;;;0.40;;
28848;SDS011;15981;43.292;-2.888;2022-09-29T09:44:51;0.30;;;0.30;;
28848;SDS011;15981;43.292;-2.888;2022-09-29T09:49:43;0.73;;;0.40;;
28848;SDS011;15981;43.292;-2.888;2022-09-29T09:52:14;1.65;;;0.80;;
28848;SDS011;15981;43.292;-2.888;2022-09-29T09:54:44;1.08;;;0.60;;
28848;SDS011;15981;43.292;-2.888;2022-09-29T09:57:22;0.40;;;0.40;;
28848;SDS011;15981;43.292;-2.888;2022-09-29T10:02:45;1.13;;;0.40;;
28848;SDS011;15981;43.292;-2.888;2022-09-29T10:05:12;1.02;;;0.43;;
28848;SDS011;15981;43.292;-2.888;2022-09-29T10:07:39;0.47;;;0.40;;
28848;SDS011;15981;43.292;-2.888;2022-09-29T10:10:06;1.20;;;0.47;;
28848;SDS011;15981;43.292;-2.888;2022-09-29T10:12:38;0.98;;;0.43;;
28848;SDS011;15981;43.292;-2.888;2022-09-29T10:15:04;0.22;;;0.22;;
28848;SDS011;15981;43.292;-2.888;2022-09-29T10:17:38;0.88;;;0.47;;
28848;SDS011;15981;43.292;-2.888;2022-09-29T10:20:06;0.88;;;0.50;;
28848;SDS011;15981;43.292;-2.888;2022-09-29T10:22:32;0.52;;;0.40;;
28848;SDS011;15981;43.292;-2.888;2022-09-29T10:25:06;0.77;;;0.50;;
28848;SDS011;15981;43.292;-2.888;2022-09-29T10:27:33;2.40;;;0.50;;
28848;SDS011;15981;43.292;-2.888;2022-09-29T10:29:59;1.80;;;0.50;;
28848;SDS011;15981;43.292;-2.888;2022-09-29T10:35:08;0.32;;;0.30;;
28848;SDS011;15981;43.292;-2.888;2022-09-29T10:37:41;0.95;;;0.60;;
28848;SDS011;15981;43.292;-2.888;2022-09-29T10:45:10;1.23;;;0.57;;
28848;SDS011;15981;43.292;-2.888;2022-09-29T10:47:36;0.80;;;0.50;;
28848;SDS011;15981;43.292;-2.888;2022-09-29T10:50:06;1.10;;;0.45;;
28848;SDS011;15981;43.292;-2.888;2022-09-29T10:52:33;0.70;;;0.40;;
28848;SDS011;15981;43.292;-2.888;2022-09-29T10:54:59;3.75;;;1.10;;
28848;SDS011;15981;43.292;-2.888;2022-09-29T10:57:29;2.75;;;1.73;;
28848;SDS011;15981;43.292;-2.888;2022-09-29T10:59:56;4.35;;;2.60;;
28848;SDS011;15981;43.292;-2.888;2022-09-29T11:04:48;7.20;;;3.65;;
28848;SDS011;15981;43.292;-2.888;2022-09-29T11:07:14;7.25;;;4.03;;
28848;SDS011;15981;43.292;-2.888;2022-09-29T11:09:41;9.45;;;4.85;;
28848;SDS011;15981;43.292;-2.888;2022-09-29T11:14:48;17.80;;;12.10;;
28848;SDS011;15981;43.292;-2.888;2022-09-29T11:17:22;25.20;;;14.18;;
28848;SDS011;15981;43.292;-2.888;2022-09-29T11:19:48;20.73;;;12.77;;
28848;SDS011;15981;43.292;-2.888;2022-09-29T11:42:54;18.98;;;9.45;;
28848;SDS011;15981;43.292;-2.888;2022-09-29T11:45:31;19.83;;;9.38;;
28848;SDS011;15981;43.292;-2.888;2022-09-29T11:48:11;41.65;;;18.02;;
28848;SDS011;15981;43.292;-2.888;2022-09-29T11:50:48;56.40;;;23.60;;
28848;SDS011;15981;43.292;-2.888;2022-09-29T11:55:52;72.25;;;28.50;;
28848;SDS011;15981;43.292;-2.888;2022-09-29T12:01:03;52.42;;;23.17;;
28848;SDS011;15981;43.292;-2.888;2022-09-29T12:03:36;37.92;;;15.85;;
28848;SDS011;15981;43.292;-2.888;2022-09-29T12:08:58;31.85;;;14.75;;
28848;SDS011;15981;43.292;-2.888;2022-09-29T12:11:37;31.38;;;13.80;;
28848;SDS011;15981;43.292;-2.888;2022-09-29T12:14:13;32.58;;;12.32;;
28848;SDS011;15981;43.292;-2.888;2022-09-29T12:16:43;24.23;;;10.55;;
28848;SDS011;15981;43.292;-2.888;2022-09-29T12:19:16;22.42;;;11.02;;
28848;SDS011;15981;43.292;-2.888;2022-09-29T12:21:45;26.23;;;11.07;;
28848;SDS011;15981;43.292;-2.888;2022-09-29T12:24:15;27.40;;;10.85;;
28848;SDS011;15981;43.292;-2.888;2022-09-29T12:26:43;26.08;;;10.88;;
28848;SDS011;15981;43.292;-2.888;2022-09-29T12:29:25;23.55;;;9.95;;
28848;SDS011;15981;43.292;-2.888;2022-09-29T12:31:53;25.65;;;10.68;;
28848;SDS011;15981;43.292;-2.888;2022-09-29T12:34:37;26.50;;;9.82;;
28848;SDS011;15981;43.292;-2.888;2022-09-29T12:37:05;25.75;;;10.05;;
28848;SDS011;15981;43.292;-2.888;2022-09-29T12:42:19;18.80;;;8.50;;
28848;SDS011;15981;43.292;-2.888;2022-09-29T12:52:24;21.30;;;8.38;;
28848;SDS011;15981;43.292;-2.888;2022-09-29T12:54:55;20.88;;;9.07;;
28848;SDS011;15981;43.292;-2.888;2022-09-29T12:57:25;18.92;;;8.20;;
28848;SDS011;15981;43.292;-2.888;2022-09-29T13:02:30;17.90;;;7.82;;
28848;SDS011;15981;43.292;-2.888;2022-09-29T13:15:18;15.00;;;6.28;;
28848;SDS011;15981;43.292;-2.888;2022-09-29T13:25:56;14.32;;;5.57;;
28848;SDS011;15981;43.292;-2.888;2022-09-29T13:28:27;14.20;;;6.07;;
28848;SDS011;15981;43.292;-2.888;2022-09-29T13:30:54;12.35;;;5.90;;
28848;SDS011;15981;43.292;-2.888;2022-09-29T13:33:22;16.10;;;5.95;;
28848;SDS011;15981;43.292;-2.888;2022-09-29T13:35:49;13.55;;;5.20;;
28848;SDS011;15981;43.292;-2.888;2022-09-29T13:38:19;12.33;;;5.50;;
28848;SDS011;15981;43.292;-2.888;2022-09-29T13:41:08;13.68;;;5.13;;
28848;SDS011;15981;43.292;-2.888;2022-09-29T13:48:51;8.50;;;3.40;;
28848;SDS011;15981;43.292;-2.888;2022-09-29T13:51:21;8.90;;;3.38;;
28848;SDS011;15981;43.292;-2.888;2022-09-29T13:53:47;5.47;;;2.75;;
28848;SDS011;15981;43.292;-2.888;2022-09-29T13:56:33;4.28;;;2.85;;
28848;SDS011;15981;43.292;-2.888;2022-09-29T13:58:59;6.95;;;2.80;;
28848;SDS011;15981;43.292;-2.888;2022-09-29T14:01:33;4.97;;;2.72;;
28848;SDS011;15981;43.292;-2.888;2022-09-29T14:04:49;9.77;;;3.17;;
28848;SDS011;15981;43.292;-2.888;2022-09-29T14:06:46;5.55;;;3.08;;
28848;SDS011;15981;43.292;-2.888;2022-09-29T14:09:13;9.48;;;3.50;;
28848;SDS011;15981;43.292;-2.888;2022-09-29T14:11:41;6.60;;;3.20;;
28848;SDS011;15981;43.292;-2.888;2022-09-29T14:14:12;7.80;;;3.25;;
28848;SDS011;15981;43.292;-2.888;2022-09-29T14:21:48;6.55;;;3.05;;
28848;SDS011;15981;43.292;-2.888;2022-09-29T14:24:47;5.78;;;3.40;;
28848;SDS011;15981;43.292;-2.888;2022-09-29T14:27:16;8.38;;;3.10;;
28848;SDS011;15981;43.292;-2.888;2022-09-29T14:29:46;6.18;;;2.97;;
28848;SDS011;15981;43.292;-2.888;2022-09-29T14:32:14;7.35;;;3.03;;
28848;SDS011;15981;43.292;-2.888;2022-09-29T14:34:42;7.05;;;2.70;;
28848;SDS011;15981;43.292;-2.888;2022-09-29T14:37:09;5.53;;;2.92;;
28848;SDS011;15981;43.292;-2.888;2022-09-29T14:39:38;5.70;;;3.08;;
28848;SDS011;15981;43.292;-2.888;2022-09-29T14:42:04;4.60;;;2.50;;
28848;SDS011;15981;43.292;-2.888;2022-09-29T14:44:40;7.47;;;3.20;;
28848;SDS011;15981;43.292;-2.888;2022-09-29T14:53:16;5.75;;;2.67;;
28848;SDS011;15981;43.292;-2.888;2022-09-29T15:03:29;6.22;;;2.78;;
28848;SDS011;15981;43.292;-2.888;2022-09-29T15:06:03;4.95;;;2.13;;
28848;SDS011;15981;43.292;-2.888;2022-09-29T15:08:29;6.15;;;2.70;;
28848;SDS011;15981;43.292;-2.888;2022-09-29T15:11:01;4.35;;;2.20;;
28848;SDS011;15981;43.292;-2.888;2022-09-29T15:13:28;6.03;;;2.55;;
28848;SDS011;15981;43.292;-2.888;2022-09-29T15:16:15;5.18;;;2.33;;
28848;SDS011;15981;43.292;-2.888;2022-09-29T15:18:59;5.32;;;2.20;;
28848;SDS011;15981;43.292;-2.888;2022-09-29T15:21:46;4.70;;;2.63;;
28848;SDS011;15981;43.292;-2.888;2022-09-29T15:26:49;3.35;;;1.90;;
28848;SDS011;15981;43.292;-2.888;2022-09-29T15:29:15;3.78;;;2.05;;
28848;SDS011;15981;43.292;-2.888;2022-09-29T15:31:43;3.75;;;1.90;;
28848;SDS011;15981;43.292;-2.888;2022-09-29T15:34:14;3.63;;;2.03;;
28848;SDS011;15981;43.292;-2.888;2022-09-29T15:36:42;3.50;;;2.10;;
28848;SDS011;15981;43.292;-2.888;2022-09-29T15:42:00;3.75;;;2.25;;
28848;SDS011;15981;43.292;-2.888;2022-09-29T15:44:26;6.05;;;1.92;;
28848;SDS011;15981;43.292;-2.888;2022-09-29T15:46:55;4.40;;;2.20;;
28848;SDS011;15981;43.292;-2.888;2022-09-29T15:49:25;4.05;;;1.95;;
28848;SDS011;15981;43.292;-2.888;2022-09-29T15:51:58;3.35;;;1.73;;
28848;SDS011;15981;43.292;-2.888;2022-09-29T15:54:25;3.30;;;1.80;;
28848;SDS011;15981;43.292;-2.888;2022-09-29T15:56:51;2.17;;;1.80;;
28848;SDS011;15981;43.292;-2.888;2022-09-29T16:02:20;2.42;;;1.90;;
28848;SDS011;15981;43.292;-2.888;2022-09-29T16:04:50;3.80;;;1.80;;
28848;SDS011;15981;43.292;-2.888;2022-09-29T16:07:24;4.75;;;1.92;;
28848;SDS011;15981;43.292;-2.888;2022-09-29T16:09:52;3.30;;;1.30;;
28848;SDS011;15981;43.292;-2.888;2022-09-29T16:12:22;5.57;;;1.90;;
28848;SDS011;15981;43.292;-2.888;2022-09-29T16:14:51;2.72;;;1.55;;
28848;SDS011;15981;43.292;-2.888;2022-09-29T16:17:18;3.75;;;2.00;;
28848;SDS011;15981;43.292;-2.888;2022-09-29T16:19:44;3.78;;;1.80;;
28848;SDS011;15981;43.292;-2.888;2022-09-29T16:22:15;3.28;;;1.70;;
28848;SDS011;15981;43.292;-2.888;2022-09-29T16:25:28;3.53;;;1.70;;
28848;SDS011;15981;43.292;-2.888;2022-09-29T16:30:27;3.00;;;1.90;;
28848;SDS011;15981;43.292;-2.888;2022-09-29T16:32:52;2.90;;;1.48;;
28848;SDS011;15981;43.292;-2.888;2022-09-29T16:35:38;3.47;;;1.65;;
28848;SDS011;15981;43.292;-2.888;2022-09-29T16:41:45;2.55;;;1.73;;
28848;SDS011;15981;43.292;-2.888;2022-09-29T16:44:10;1.95;;;1.70;;
28848;SDS011;15981;43.292;-2.888;2022-09-29T16:49:12;3.15;;;1.75;;
28848;SDS011;15981;43.292;-2.888;2022-09-29T16:51:40;3.42;;;1.70;;
28848;SDS011;15981;43.292;-2.888;2022-09-29T16:54:11;2.90;;;1.67;;
28848;SDS011;15981;43.292;-2.888;2022-09-29T16:56:39;1.73;;;1.30;;
28848;SDS011;15981;43.292;-2.888;2022-09-29T16:59:09;2.92;;;1.38;;
28848;SDS011;15981;43.292;-2.888;2022-09-29T17:01:36;1.42;;;1.27;;
28848;SDS011;15981;43.292;-2.888;2022-09-29T17:04:02;1.80;;;1.45;;
28848;SDS011;15981;43.292;-2.888;2022-09-29T17:06:28;2.50;;;1.40;;
28848;SDS011;15981;43.292;-2.888;2022-09-29T17:08:54;2.13;;;1.55;;
28848;SDS011;15981;43.292;-2.888;2022-09-29T17:11:19;2.47;;;1.40;;
28848;SDS011;15981;43.292;-2.888;2022-09-29T17:13:45;2.42;;;1.38;;
28848;SDS011;15981;43.292;-2.888;2022-09-29T17:16:11;2.40;;;1.77;;
28848;SDS011;15981;43.292;-2.888;2022-09-29T17:18:48;2.70;;;1.50;;
28848;SDS011;15981;43.292;-2.888;2022-09-29T17:21:15;2.13;;;1.40;;
28848;SDS011;15981;43.292;-2.888;2022-09-29T17:23:40;3.17;;;1.55;;